Time;durP1;ratioP1;P1;durP2;ratioP2;P2;SDS_P1;SDS_P2;PMS_P1;PMS_P2;Temp;Humidity;BMP_temperature;BMP_pressure;BME280_temperature;BME280_humidity;BME280_pressure;Samples;Min_cycle;Max_cycle;Signal;HPM_P1;HPM_P2
2022/04/24 00:00:06;;;;;;;353.97;169.93;;;;;;;17.12;64.14;99081.81;344070;28;1013;-78
2022/04/24 00:00:17;;;;;;;351.88;169.15;;;;;;;17.13;64.29;99086.13;341884;28;1805;-78
2022/04/24 00:00:27;;;;;;;350.95;170.00;;;;;;;17.11;64.06;99088.88;343678;28;1565;-79
2022/04/24 00:00:38;;;;;;;350.60;169.13;;;;;;;17.14;63.72;99090.47;342190;28;1202;-79
2022/04/24 00:00:48;;;;;;;349.98;163.25;;;;;;;17.08;63.75;99085.63;343069;28;1092;-79
2022/04/24 00:00:58;;;;;;;352.43;162.90;;;;;;;17.07;62.95;99089.25;347183;28;1313;-79
2022/04/24 00:01:09;;;;;;;351.33;161.23;;;;;;;17.06;62.50;99083.09;344110;28;1203;-79
2022/04/24 00:01:20;;;;;;;350.73;162.30;;;;;;;17.03;61.58;99091.28;342580;28;1202;-79
2022/04/24 00:01:30;;;;;;;348.13;158.65;;;;;;;17.03;61.45;99085.13;345109;28;1572;-78
2022/04/24 00:01:41;;;;;;;347.25;155.52;;;;;;;17.04;61.75;99089.47;344251;28;1404;-79
2022/04/24 00:01:51;;;;;;;346.97;151.93;;;;;;;17.04;61.81;99089.47;342717;28;1215;-79
2022/04/24 00:02:02;;;;;;;347.13;153.38;;;;;;;17.04;62.09;99089.47;345497;28;1345;-79
2022/04/24 00:02:12;;;;;;;350.30;156.50;;;;;;;17.03;62.36;99083.34;344094;28;1160;-79
2022/04/24 00:02:23;;;;;;;350.40;160.18;;;;;;;17.05;62.34;99096.44;343682;28;1241;-79
2022/04/24 00:02:33;;;;;;;350.83;160.97;;;;;;;17.06;62.50;99088.41;344374;28;1002;-79
2022/04/24 00:02:44;;;;;;;349.88;160.55;;;;;;;17.06;62.69;99093.69;341486;29;1383;-79
2022/04/24 00:02:55;;;;;;;349.05;159.30;;;;;;;17.08;62.79;99085.63;344670;28;1353;-78
2022/04/24 00:03:05;;;;;;;349.57;157.90;;;;;;;17.09;62.79;99097.91;344055;28;1193;-79
2022/04/24 00:03:16;;;;;;;348.15;157.50;;;;;;;17.09;63.06;99092.59;341440;29;1322;-79
2022/04/24 00:03:26;;;;;;;350.07;160.07;;;;;;;17.06;63.23;99090.19;345723;28;1364;-79
2022/04/24 00:03:37;;;;;;;348.23;158.32;;;;;;;17.03;63.12;99093.06;348576;28;1199;-79
2022/04/24 00:03:48;;;;;;;353.10;158.57;;;;;;;17.07;63.34;99092.72;345304;28;924;-79
2022/04/24 00:04:00;;;;;;;350.65;156.27;;;;;;;17.06;63.29;99082.25;342749;28;873;-79
2022/04/24 00:04:11;;;;;;;350.00;158.38;;;;;;;17.07;63.58;99089.25;343958;28;956;-79
2022/04/24 00:04:23;;;;;;;351.80;160.25;;;;;;;17.05;63.80;99089.34;342542;28;1381;-79
2022/04/24 00:04:35;;;;;;;355.67;160.85;;;;;;;17.06;63.84;99092.84;343737;28;1401;-81
2022/04/24 00:04:45;;;;;;;352.77;158.48;;;;;;;17.10;64.02;99096.94;342613;28;980;-79
2022/04/24 00:04:56;;;;;;;351.07;154.10;;;;;;;17.06;64.11;99090.19;341420;28;1352;-78
2022/04/24 00:05:08;;;;;;;350.70;154.00;;;;;;;17.06;64.35;99095.47;342620;28;1450;-78
2022/04/24 00:05:22;;;;;;;348.48;153.10;;;;;;;17.05;64.75;99096.44;345213;28;930;-78
2022/04/24 00:05:32;;;;;;;347.05;151.68;;;;;;;17.06;64.66;99092.84;345165;28;1361;-78
2022/04/24 00:05:43;;;;;;;348.02;152.73;;;;;;;17.02;64.45;99096.69;343963;28;928;-79
2022/04/24 00:05:53;;;;;;;351.83;154.70;;;;;;;17.00;64.68;99098.59;342419;28;1907;-78
2022/04/24 00:06:04;;;;;;;349.70;156.32;;;;;;;16.98;64.79;99089.94;345212;28;1378;-78
2022/04/24 00:06:14;;;;;;;350.20;156.93;;;;;;;16.97;64.79;99094.38;345427;28;1307;-78
2022/04/24 00:06:24;;;;;;;349.02;155.50;;;;;;;16.97;64.94;99099.66;343708;28;1446;-78
2022/04/24 00:06:35;;;;;;;350.20;153.40;;;;;;;16.94;65.10;99089.31;341694;28;1322;-79
2022/04/24 00:06:46;;;;;;;349.30;151.52;;;;;;;16.95;65.11;99099.78;345151;28;1223;-78
2022/04/24 00:06:57;;;;;;;353.60;154.15;;;;;;;16.98;65.13;99095.22;345364;28;999;-78
2022/04/24 00:07:08;;;;;;;355.40;155.70;;;;;;;16.97;65.13;99097.00;344687;28;1279;-78
2022/04/24 00:07:18;;;;;;;354.60;154.50;;;;;;;16.99;65.31;99091.63;342479;28;1232;-78
2022/04/24 00:07:29;;;;;;;351.65;154.73;;;;;;;16.98;65.03;99101.34;341475;29;853;-78
2022/04/24 00:07:40;;;;;;;349.58;155.43;;;;;;;16.94;65.23;99090.16;346827;28;869;-78
2022/04/24 00:07:50;;;;;;;349.90;156.10;;;;;;;16.97;65.25;99099.66;345397;28;1314;-78
2022/04/24 00:08:01;;;;;;;349.57;154.67;;;;;;;16.94;65.12;99092.81;345526;28;1212;-79
2022/04/24 00:08:11;;;;;;;349.87;154.80;;;;;;;16.98;65.22;99100.50;342816;28;1326;-79
2022/04/24 00:08:22;;;;;;;348.63;152.82;;;;;;;16.93;65.25;99087.63;341479;29;1290;-79
2022/04/24 00:08:32;;;;;;;350.30;152.70;;;;;;;16.95;65.19;99091.00;340174;29;1376;-79
2022/04/24 00:08:43;;;;;;;353.80;153.07;;;;;;;16.95;65.58;99099.78;345467;28;1459;-79
2022/04/24 00:08:53;;;;;;;354.52;154.20;;;;;;;16.93;65.37;99087.63;344892;28;1579;-79
2022/04/24 00:09:03;;;;;;;354.73;154.17;;;;;;;16.88;65.47;99088.00;345355;28;1214;-79
2022/04/24 00:09:14;;;;;;;354.20;154.80;;;;;;;16.90;65.46;99094.00;343911;28;1359;-79
2022/04/24 00:09:25;;;;;;;354.63;155.13;;;;;;;16.91;65.44;99095.69;345287;28;1233;-79
2022/04/24 00:09:36;;;;;;;357.23;156.55;;;;;;;16.89;65.41;99094.13;343122;28;1178;-79
2022/04/24 00:09:46;;;;;;;355.25;155.52;;;;;;;16.85;65.31;99090.88;338958;29;1358;-79
2022/04/24 00:09:56;;;;;;;356.27;156.53;;;;;;;16.85;65.19;99096.16;342848;28;1189;-79
2022/04/24 00:10:07;;;;;;;350.52;152.73;;;;;;;16.82;65.21;99083.19;345823;28;1408;-79
2022/04/24 00:10:18;;;;;;;352.10;154.73;;;;;;;16.82;65.30;99091.09;342791;28;825;-79
2022/04/24 00:10:28;;;;;;;353.87;155.33;;;;;;;16.85;65.40;99095.31;343899;28;1426;-79
2022/04/24 00:10:38;;;;;;;356.33;156.27;;;;;;;16.81;65.61;99088.56;345477;28;1157;-79
2022/04/24 00:10:49;;;;;;;354.05;152.80;;;;;;;16.81;65.54;99086.78;346972;28;810;-79
2022/04/24 00:11:00;;;;;;;350.13;150.43;;;;;;;16.83;66.02;99092.78;342616;28;1333;-79
2022/04/24 00:11:10;;;;;;;349.17;150.25;;;;;;;16.85;65.74;99096.16;341835;28;1791;-79
2022/04/24 00:11:21;;;;;;;348.42;150.18;;;;;;;16.81;65.92;99089.41;345365;28;1263;-79
2022/04/24 00:11:31;;;;;;;351.67;152.77;;;;;;;16.81;66.19;99094.72;343078;28;1569;-79
2022/04/24 00:11:41;;;;;;;348.17;151.18;;;;;;;16.76;66.65;99096.84;341319;28;1216;-79
2022/04/24 00:11:52;;;;;;;346.63;150.07;;;;;;;16.75;66.41;99089.03;342763;28;1476;-79
2022/04/24 00:12:03;;;;;;;342.75;147.40;;;;;;;16.74;66.55;99085.53;344625;28;1346;-78
2022/04/24 00:12:16;;;;;;;343.92;149.93;;;;;;;16.71;66.32;99098.97;347958;28;1424;-78
2022/04/24 00:12:27;;;;;;;343.02;148.30;;;;;;;16.70;66.37;99086.72;343861;28;975;-78
2022/04/24 00:12:38;;;;;;;347.45;149.18;;;;;;;16.66;66.39;99089.72;342512;28;1281;-78
2022/04/24 00:12:50;;;;;;;348.45;150.40;;;;;;;16.61;66.47;99090.03;345106;28;1345;-78
2022/04/24 00:13:00;;;;;;;349.40;152.00;;;;;;;16.63;65.99;99093.38;344004;28;1351;-78
2022/04/24 00:13:11;;;;;;;351.17;152.33;;;;;;;16.62;65.97;99091.69;341255;28;1209;-78
2022/04/24 00:13:23;;;;;;;350.85;150.10;;;;;;;16.60;65.81;99085.69;342705;28;940;-78
2022/04/24 00:13:41;;;;;;;350.98;148.18;;;;;;;16.59;65.71;99086.66;341533;28;1426;-78
2022/04/24 00:13:52;;;;;;;345.83;147.48;;;;;;;16.59;65.75;99089.28;339933;29;988;-78
2022/04/24 00:14:07;;;;;;;344.03;149.23;;;;;;;16.58;65.66;99088.44;342663;28;1225;-78
2022/04/24 00:14:19;;;;;;;345.40;148.20;;;;;;;16.62;65.92;99083.78;343852;28;1378;-78
2022/04/24 00:14:30;;;;;;;349.15;149.60;;;;;;;16.63;65.63;99090.75;345077;28;1561;-78
2022/04/24 00:14:42;;;;;;;349.08;151.35;;;;;;;16.63;65.89;99088.09;343365;28;1292;-78
2022/04/24 00:14:53;;;;;;;347.77;151.13;;;;;;;16.65;65.78;99093.31;343827;28;1335;-78
2022/04/24 00:15:04;;;;;;;349.10;151.73;;;;;;;16.67;65.69;99091.41;339947;29;857;-78
2022/04/24 00:15:15;;;;;;;350.60;151.85;;;;;;;16.68;65.73;99088.66;344057;28;1308;-78
2022/04/24 00:15:25;;;;;;;351.38;153.38;;;;;;;16.71;65.93;99087.56;348061;28;1216;-78
2022/04/24 00:15:35;;;;;;;350.60;151.03;;;;;;;16.73;65.74;99091.78;343887;28;1233;-79
2022/04/24 00:15:46;;;;;;;350.23;150.07;;;;;;;16.72;65.83;99090.09;342529;28;1197;-78
2022/04/24 00:15:56;;;;;;;348.83;149.47;;;;;;;16.70;65.75;99078.81;344805;28;1498;-78
2022/04/24 00:16:07;;;;;;;349.02;152.98;;;;;;;16.76;66.25;99094.19;345012;28;1216;-78
2022/04/24 00:16:20;;;;;;;349.80;154.27;;;;;;;16.74;66.28;99092.63;343792;28;1251;-79
2022/04/24 00:16:33;;;;;;;351.23;151.90;;;;;;;16.74;65.89;99085.53;343907;28;1327;-78
2022/04/24 00:16:46;;;;;;;350.26;150.76;;;;;;;16.73;66.16;99085.66;344157;28;1012;-79
2022/04/24 00:16:56;;;;;;;348.45;152.32;;;;;;;16.76;66.17;99080.16;343884;28;1476;-78
2022/04/24 00:17:08;;;;;;;347.43;151.30;;;;;;;16.73;65.92;99081.22;344057;28;798;-79
2022/04/24 00:17:20;;;;;;;347.63;149.52;;;;;;;16.79;65.95;99088.69;342498;28;1286;-79
2022/04/24 00:17:31;;;;;;;349.27;152.77;;;;;;;16.78;65.98;99083.53;340371;29;1410;-79
2022/04/24 00:17:41;;;;;;;349.33;154.23;;;;;;;16.80;65.92;99087.72;344212;28;1377;-79
2022/04/24 00:17:51;;;;;;;347.07;152.73;;;;;;;16.81;65.80;99096.50;347121;28;1235;-79
2022/04/24 00:18:02;;;;;;;347.47;150.03;;;;;;;16.82;65.80;99090.25;344079;28;1228;-79
2022/04/24 00:18:14;;;;;;;347.92;151.27;;;;;;;16.80;65.56;99087.72;342743;28;1321;-79
2022/04/24 00:18:24;;;;;;;348.80;151.77;;;;;;;16.82;65.14;99087.63;345331;28;1292;-79
2022/04/24 00:18:35;;;;;;;345.03;152.67;;;;;;;16.79;64.44;99079.91;346850;28;1172;-79
2022/04/24 00:18:45;;;;;;;339.50;148.50;;;;;;;16.84;63.75;99094.47;346843;28;1211;-79
2022/04/24 00:18:56;;;;;;;334.90;144.80;;;;;;;16.83;62.89;99084.88;344746;28;846;-78
2022/04/24 00:19:06;;;;;;;335.23;143.60;;;;;;;16.84;61.57;99098.91;345529;28;1179;-78
2022/04/24 00:19:19;;;;;;;340.73;146.07;;;;;;;16.84;61.40;99091.00;345872;28;1301;-78
2022/04/24 00:19:29;;;;;;;340.48;147.05;;;;;;;16.86;61.04;99097.00;341819;28;1300;-78
2022/04/24 00:19:39;;;;;;;341.53;147.30;;;;;;;16.86;61.13;99087.28;345132;28;1180;-78
2022/04/24 00:19:50;;;;;;;341.55;146.48;;;;;;;16.86;60.88;99092.56;343998;28;1184;-78
2022/04/24 00:20:00;;;;;;;342.70;145.33;;;;;;;16.86;60.95;99092.56;341181;28;1250;-78
2022/04/24 00:20:11;;;;;;;342.70;143.75;;;;;;;16.84;60.93;99086.56;342602;28;1309;-78
2022/04/24 00:20:21;;;;;;;343.97;146.57;;;;;;;16.86;61.20;99092.56;342989;28;881;-78
2022/04/24 00:20:31;;;;;;;342.15;148.27;;;;;;;16.86;60.99;99086.44;343084;28;1071;-78
2022/04/24 00:20:44;;;;;;;342.93;150.17;;;;;;;16.86;60.95;99089.06;341208;28;1558;-78
2022/04/24 00:20:55;;;;;;;343.90;150.45;;;;;;;16.85;61.06;99085.59;345348;28;1375;-78
2022/04/24 00:21:05;;;;;;;343.95;150.27;;;;;;;16.88;61.54;99092.44;346418;28;1188;-78
2022/04/24 00:21:16;;;;;;;344.97;152.33;;;;;;;16.84;62.25;99077.78;343134;28;1383;-78
2022/04/24 00:21:26;;;;;;;345.05;151.02;;;;;;;16.85;63.09;99090.88;345589;28;897;-78
2022/04/24 00:21:37;;;;;;;349.50;152.20;;;;;;;16.89;63.06;99089.69;345697;28;849;-78
2022/04/24 00:21:47;;;;;;;351.83;150.93;;;;;;;16.85;63.17;99090.88;343928;28;1361;-79
2022/04/24 00:21:57;;;;;;;352.97;152.37;;;;;;;16.88;63.17;99088.00;345606;28;1645;-78
2022/04/24 00:22:08;;;;;;;348.83;151.07;;;;;;;16.90;63.60;99093.16;345217;28;1255;-78
2022/04/24 00:22:18;;;;;;;347.30;150.23;;;;;;;16.88;63.00;99085.38;343875;28;1379;-78
2022/04/24 00:22:29;;;;;;;348.47;150.37;;;;;;;16.87;63.37;99088.13;342737;28;1240;-78
2022/04/24 00:22:39;;;;;;;348.48;149.98;;;;;;;16.89;63.43;99096.78;346732;28;1369;-78
2022/04/24 00:22:49;;;;;;;350.00;150.30;;;;;;;16.85;63.52;99085.59;343695;28;1461;-78
2022/04/24 00:23:00;;;;;;;345.33;147.60;;;;;;;16.86;63.51;99091.72;340275;29;1095;-77
2022/04/24 00:23:10;;;;;;;346.90;147.80;;;;;;;16.85;63.25;99090.88;341404;29;1824;-78
2022/04/24 00:23:21;;;;;;;343.75;146.20;;;;;;;16.83;63.71;99082.22;342591;28;976;-78
2022/04/24 00:23:31;;;;;;;345.93;149.67;;;;;;;16.84;63.47;99083.06;342694;28;818;-78
2022/04/24 00:23:43;;;;;;;345.35;150.77;;;;;;;16.80;63.85;99087.72;343014;28;1896;-78
2022/04/24 00:23:53;;;;;;;350.48;153.07;;;;;;;16.85;63.05;99090.88;342675;28;1585;-78
2022/04/24 00:24:04;;;;;;;350.47;152.50;;;;;;;16.83;63.07;99087.50;341244;28;1186;-78
2022/04/24 00:24:15;;;;;;;349.80;150.35;;;;;;;16.82;62.88;99085.81;344197;28;881;-78
2022/04/24 00:24:25;;;;;;;347.03;151.10;;;;;;;16.81;63.11;99092.06;345080;28;1477;-78
2022/04/24 00:24:36;;;;;;;344.67;147.63;;;;;;;16.83;63.11;99082.22;344230;28;1088;-78
2022/04/24 00:24:46;;;;;;;348.17;151.53;;;;;;;16.81;63.29;99089.41;345249;28;806;-78
2022/04/24 00:24:56;;;;;;;349.90;150.90;;;;;;;16.84;62.68;99088.34;342436;28;1668;-78
2022/04/24 00:25:07;;;;;;;350.23;151.70;;;;;;;16.86;62.48;99086.44;344008;28;865;-78
2022/04/24 00:25:18;;;;;;;346.92;150.65;;;;;;;16.85;62.46;99096.16;346612;28;1390;-78
2022/04/24 00:25:28;;;;;;;347.50;152.63;;;;;;;16.84;61.94;99083.91;344029;28;1216;-78
2022/04/24 00:25:38;;;;;;;345.83;152.77;;;;;;;16.85;61.91;99092.69;347036;28;2656;-78
2022/04/24 00:25:49;;;;;;;345.97;151.30;;;;;;;16.85;61.93;99090.03;346551;28;1895;-78
2022/04/24 00:25:59;;;;;;;345.85;149.32;;;;;;;16.84;61.68;99094.47;343534;28;1525;-78
2022/04/24 00:26:10;;;;;;;346.40;149.00;;;;;;;16.84;61.21;99094.47;343851;28;1528;-78
2022/04/24 00:26:20;;;;;;;347.02;150.93;;;;;;;16.84;61.13;99083.06;345300;28;1329;-78
2022/04/24 00:26:31;;;;;;;345.67;150.93;;;;;;;16.85;61.21;99085.59;347700;28;1499;-78
2022/04/24 00:26:41;;;;;;;345.17;150.63;;;;;;;16.86;61.06;99089.91;346842;28;1346;-78
2022/04/24 00:26:52;;;;;;;345.53;150.63;;;;;;;16.88;61.04;99089.81;344031;28;1202;-78
2022/04/24 00:27:02;;;;;;;344.92;151.05;;;;;;;16.85;60.85;99085.59;342666;28;1340;-78
2022/04/24 00:27:13;;;;;;;346.10;152.33;;;;;;;16.86;61.19;99089.06;346848;28;1191;-78
2022/04/24 00:27:23;;;;;;;347.45;149.77;;;;;;;16.86;61.59;99086.44;343611;28;2193;-78
2022/04/24 00:27:34;;;;;;;347.92;147.70;;;;;;;16.84;62.03;99083.91;340120;29;790;-78
2022/04/24 00:27:45;;;;;;;347.03;147.13;;;;;;;16.86;61.68;99084.63;342590;28;1328;-78
2022/04/24 00:27:55;;;;;;;344.55;148.30;;;;;;;16.86;62.13;99087.28;345306;28;948;-78
2022/04/24 00:28:05;;;;;;;344.57;149.63;;;;;;;16.85;62.05;99085.59;345534;28;1246;-78
2022/04/24 00:28:17;;;;;;;343.42;148.70;;;;;;;16.82;62.33;99080.53;346783;28;1259;-78
2022/04/24 00:28:28;;;;;;;344.77;147.23;;;;;;;16.84;62.66;99086.56;343985;28;1393;-78
2022/04/24 00:28:38;;;;;;;345.50;146.63;;;;;;;16.84;62.61;99083.06;346609;28;1306;-78
2022/04/24 00:28:48;;;;;;;346.50;150.27;;;;;;;16.85;62.97;99096.16;345305;28;731;-78
2022/04/24 00:28:59;;;;;;;348.80;153.35;;;;;;;16.83;62.89;99090.16;341332;28;1620;-78
2022/04/24 00:29:09;;;;;;;349.43;152.63;;;;;;;16.83;63.10;99090.16;341325;28;1270;-78
2022/04/24 00:29:20;;;;;;;350.52;151.13;;;;;;;16.81;63.28;99089.41;342627;28;1497;-78
2022/04/24 00:29:31;;;;;;;350.23;152.20;;;;;;;16.82;63.28;99091.09;344166;28;885;-78
2022/04/24 00:29:43;;;;;;;348.60;154.73;;;;;;;16.80;62.92;99082.44;345279;28;1197;-78
2022/04/24 00:29:53;;;;;;;346.08;154.05;;;;;;;16.80;63.12;99086.88;345482;28;908;-78
2022/04/24 00:30:04;;;;;;;344.98;152.82;;;;;;;16.81;63.37;99092.06;342670;28;1283;-78
2022/04/24 00:30:14;;;;;;;342.80;150.15;;;;;;;16.80;63.01;99093.03;342593;28;1146;-78
2022/04/24 00:30:25;;;;;;;341.67;147.73;;;;;;;16.79;63.10;99093.97;346007;28;1500;-78
2022/04/24 00:30:35;;;;;;;339.67;146.85;;;;;;;16.81;62.93;99094.72;343900;28;1435;-78
2022/04/24 00:30:45;;;;;;;342.90;150.43;;;;;;;16.79;62.85;99086.03;343171;28;1477;-78
2022/04/24 00:30:56;;;;;;;343.87;151.17;;;;;;;16.77;63.04;99082.69;346808;28;1581;-78
2022/04/24 00:31:06;;;;;;;346.20;152.35;;;;;;;16.78;63.06;99084.38;345227;28;814;-78
2022/04/24 00:31:17;;;;;;;350.00;153.57;;;;;;;16.77;63.33;99087.97;344373;28;1296;-78
2022/04/24 00:31:27;;;;;;;349.20;154.15;;;;;;;16.80;63.10;99092.19;345470;28;892;-78
2022/04/24 00:31:37;;;;;;;346.57;152.83;;;;;;;16.80;63.40;99087.72;342617;28;1212;-78
2022/04/24 00:31:48;;;;;;;345.17;151.20;;;;;;;16.82;63.26;99091.09;344230;28;1368;-78
2022/04/24 00:31:58;;;;;;;347.03;151.87;;;;;;;16.79;63.44;99093.97;345665;28;987;-78
2022/04/24 00:32:09;;;;;;;348.10;150.87;;;;;;;16.81;63.48;99089.41;342801;28;1778;-78
2022/04/24 00:32:19;;;;;;;346.77;149.32;;;;;;;16.78;63.68;99105.50;342720;28;1563;-78
2022/04/24 00:32:29;;;;;;;347.73;148.83;;;;;;;16.74;63.63;99088.19;343358;28;1004;-78
2022/04/24 00:32:40;;;;;;;348.52;150.43;;;;;;;16.74;63.30;99084.69;342500;28;1202;-78
2022/04/24 00:32:50;;;;;;;349.40;149.43;;;;;;;16.73;63.31;99091.78;344033;28;864;-78
2022/04/24 00:33:01;;;;;;;346.70;147.95;;;;;;;16.71;63.11;99085.78;343867;28;1215;-78
2022/04/24 00:33:11;;;;;;;345.13;146.00;;;;;;;16.74;63.28;99093.47;344244;28;889;-78
2022/04/24 00:33:22;;;;;;;344.52;148.20;;;;;;;16.72;63.41;99086.63;342670;28;1342;-78
2022/04/24 00:33:32;;;;;;;343.63;150.00;;;;;;;16.70;63.41;99086.72;344298;28;787;-78
2022/04/24 00:33:43;;;;;;;343.03;151.30;;;;;;;16.71;63.44;99093.69;345375;28;1188;-78
2022/04/24 00:33:53;;;;;;;342.07;148.77;;;;;;;16.68;63.36;99088.66;346265;28;1578;-78
2022/04/24 00:34:04;;;;;;;342.33;146.98;;;;;;;16.66;63.41;99079.97;344538;28;1344;-78
2022/04/24 00:34:14;;;;;;;343.63;148.73;;;;;;;16.72;63.35;99094.53;345947;28;1164;-78
2022/04/24 00:34:24;;;;;;;342.48;151.05;;;;;;;16.73;63.38;99091.78;343805;28;1110;-78
2022/04/24 00:34:35;;;;;;;343.17;151.40;;;;;;;16.72;63.34;99090.09;343917;28;1251;-78
2022/04/24 00:34:45;;;;;;;348.05;152.23;;;;;;;16.73;62.92;99089.16;342501;28;1450;-77
2022/04/24 00:34:56;;;;;;;348.67;150.70;;;;;;;16.71;62.54;99093.69;342415;29;1353;-78
2022/04/24 00:35:06;;;;;;;345.83;148.90;;;;;;;16.72;62.71;99089.25;343838;28;1248;-78
2022/04/24 00:35:17;;;;;;;341.30;148.77;;;;;;;16.69;62.38;99092.97;345086;28;1554;-78
2022/04/24 00:35:28;;;;;;;341.27;149.80;;;;;;;16.65;62.53;99080.09;345027;28;1032;-78
2022/04/24 00:35:38;;;;;;;343.67;151.38;;;;;;;16.61;62.55;99090.03;347990;28;935;-78
2022/04/24 00:35:49;;;;;;;343.00;149.67;;;;;;;16.68;62.56;99088.66;345401;28;1182;-77
2022/04/24 00:35:59;;;;;;;340.50;148.43;;;;;;;16.65;62.85;99096.78;346802;28;1066;-78
2022/04/24 00:36:09;;;;;;;340.53;148.97;;;;;;;16.63;62.60;99085.47;346321;28;1187;-77
2022/04/24 00:36:20;;;;;;;338.15;148.38;;;;;;;16.61;63.28;99088.22;345214;28;1175;-78
2022/04/24 00:36:30;;;;;;;342.93;150.27;;;;;;;16.56;62.74;99084.22;342796;29;1099;-78
2022/04/24 00:36:41;;;;;;;345.87;151.00;;;;;;;16.61;62.66;99088.22;346576;28;877;-78
2022/04/24 00:36:51;;;;;;;349.15;153.10;;;;;;;16.61;62.75;99084.72;346413;28;822;-78
2022/04/24 00:37:02;;;;;;;351.13;154.67;;;;;;;16.62;63.39;99100.47;343516;28;1208;-78
2022/04/24 00:37:12;;;;;;;350.42;154.80;;;;;;;16.61;62.58;99087.38;345086;28;1314;-78
2022/04/24 00:37:22;;;;;;;350.60;154.10;;;;;;;16.64;62.69;99089.81;342702;29;1056;-78
2022/04/24 00:37:33;;;;;;;346.38;152.15;;;;;;;16.65;62.76;99094.16;344860;28;1067;-77
2022/04/24 00:37:43;;;;;;;346.60;152.83;;;;;;;16.65;62.63;99090.66;346522;28;1110;-78
2022/04/24 00:37:54;;;;;;;345.30;153.13;;;;;;;16.60;62.96;99088.31;343807;28;1239;-78
2022/04/24 00:38:04;;;;;;;344.73;153.07;;;;;;;16.60;62.62;99080.41;343803;28;1028;-78
2022/04/24 00:38:15;;;;;;;342.55;150.90;;;;;;;16.60;62.90;99090.97;344983;28;1070;-77
2022/04/24 00:38:25;;;;;;;342.47;149.90;;;;;;;16.57;63.39;99089.41;343328;28;1492;-78
2022/04/24 00:38:35;;;;;;;341.77;149.15;;;;;;;16.57;63.27;99094.69;343095;28;1131;-78
2022/04/24 00:38:46;;;;;;;340.80;148.63;;;;;;;16.57;63.51;99085.91;343956;28;1172;-78
2022/04/24 00:38:56;;;;;;;342.87;150.37;;;;;;;16.55;63.37;99082.53;341159;28;1189;-78
2022/04/24 00:39:07;;;;;;;342.05;153.15;;;;;;;16.58;63.21;99087.59;346420;28;1304;-78
2022/04/24 00:39:17;;;;;;;342.20;154.80;;;;;;;16.58;62.74;99090.25;349158;28;1234;-78
2022/04/24 00:39:27;;;;;;;341.02;154.50;;;;;;;16.60;63.09;99085.69;345106;28;1329;-78
2022/04/24 00:39:38;;;;;;;342.47;155.53;;;;;;;16.59;63.21;99086.66;345362;28;1211;-78
2022/04/24 00:39:48;;;;;;;343.27;154.35;;;;;;;16.57;63.24;99094.69;344465;28;929;-78
2022/04/24 00:39:58;;;;;;;344.60;155.97;;;;;;;16.59;63.11;99089.28;341568;28;1531;-78
2022/04/24 00:40:10;;;;;;;346.33;155.67;;;;;;;16.58;63.37;99085.81;342699;28;1300;-78
2022/04/24 00:40:20;;;;;;;348.00;156.82;;;;;;;16.60;63.34;99090.97;343919;28;1280;-78
2022/04/24 00:40:30;;;;;;;347.10;155.50;;;;;;;16.61;63.05;99092.66;342570;28;885;-78
2022/04/24 00:40:45;;;;;;;343.20;153.70;;;;;;;16.60;63.15;99096.25;342494;28;1302;-78
2022/04/24 00:40:56;;;;;;;338.83;152.18;;;;;;;16.57;62.98;99088.56;346735;28;1473;-78
2022/04/24 00:41:07;;;;;;;338.85;152.65;;;;;;;16.53;62.98;99084.44;345091;28;1299;-78
2022/04/24 00:41:17;;;;;;;341.30;156.20;;;;;;;16.57;63.19;99099.13;342798;28;1220;-78
2022/04/24 00:41:28;;;;;;;344.90;161.18;;;;;;;16.57;62.93;99086.75;341236;29;972;-78
2022/04/24 00:41:48;;;;;;;345.07;159.00;;;;;;;16.55;62.85;99079.91;345226;28;1418;-78
2022/04/24 00:41:59;;;;;;;343.08;156.52;;;;;;;16.58;63.07;99095.53;345225;28;905;-78
2022/04/24 00:42:10;;;;;;;343.88;158.07;;;;;;;16.53;63.01;99079.16;345283;28;928;-78
2022/04/24 00:42:20;;;;;;;345.93;160.30;;;;;;;16.58;63.11;99095.53;345250;28;1249;-78
2022/04/24 00:42:30;;;;;;;346.15;160.02;;;;;;;16.54;63.13;99094.06;345163;28;1055;-78
2022/04/24 00:42:41;;;;;;;346.63;160.47;;;;;;;16.56;63.23;99087.72;346894;28;1287;-78
2022/04/24 00:42:51;;;;;;;345.63;159.13;;;;;;;16.55;63.15;99088.66;345607;28;1230;-78
2022/04/24 00:43:02;;;;;;;345.90;160.32;;;;;;;16.50;63.01;99079.41;341206;28;1321;-78
2022/04/24 00:43:12;;;;;;;347.97;162.50;;;;;;;16.55;63.24;99093.94;345123;28;1302;-78
2022/04/24 00:43:22;;;;;;;351.60;162.25;;;;;;;16.54;63.05;99086.13;343876;28;845;-78
2022/04/24 00:43:33;;;;;;;352.20;161.60;;;;;;;16.52;63.28;99093.34;341203;29;1186;-78
2022/04/24 00:43:53;;;;;;;351.17;160.55;;;;;;;16.57;63.04;99099.13;343866;28;1121;-78
2022/04/24 00:44:04;;;;;;;344.88;159.55;;;;;;;16.57;62.83;99096.47;343270;28;1041;-78
2022/04/24 00:44:15;;;;;;;344.58;160.60;;;;;;;16.56;62.91;99093.00;343763;28;1161;-78
2022/04/24 00:44:27;;;;;;;345.98;160.15;;;;;;;16.57;62.86;99093.84;342106;28;1352;-78
2022/04/24 00:44:37;;;;;;;349.20;159.18;;;;;;;16.58;62.53;99091.09;341170;29;1474;-79
2022/04/24 00:44:48;;;;;;;348.27;159.40;;;;;;;16.57;62.90;99096.47;344287;28;1714;-79
2022/04/24 00:44:58;;;;;;;348.70;160.83;;;;;;;16.57;63.00;99089.41;348198;28;1448;-79
2022/04/24 00:45:09;;;;;;;349.13;160.50;;;;;;;16.58;62.80;99084.97;345113;28;1197;-79
2022/04/24 00:45:20;;;;;;;352.47;161.73;;;;;;;16.61;62.89;99090.03;345319;28;810;-78
2022/04/24 00:45:30;;;;;;;352.42;162.43;;;;;;;16.61;62.52;99092.66;346973;28;1369;-78
2022/04/24 00:45:40;;;;;;;350.20;161.90;;;;;;;16.61;62.36;99088.22;346720;28;1039;-78
2022/04/24 00:46:08;;;;;;;345.35;159.48;;;;;;;16.64;61.81;99092.47;344557;28;1247;-79
2022/04/24 00:46:43;;;;;;;342.38;157.88;;;;;;;16.64;61.24;99087.19;342585;28;880;-78
2022/04/24 00:46:59;;;;;;;338.65;154.48;;;;;;;16.69;61.33;99094.78;342329;28;1291;-78
2022/04/24 00:47:20;;;;;;;341.20;156.27;;;;;;;16.69;60.80;99095.63;346499;28;1171;-78
2022/04/24 00:47:31;;;;;;;342.05;154.70;;;;;;;16.69;60.85;99095.63;346505;28;1285;-78
2022/04/24 00:47:44;;;;;;;342.70;157.60;;;;;;;16.68;60.52;99091.28;345237;28;1234;-78
2022/04/24 00:47:56;;;;;;;345.70;159.82;;;;;;;16.70;60.50;99092.00;346614;28;1407;-79
2022/04/24 00:48:06;;;;;;;346.63;159.88;;;;;;;16.72;60.32;99092.75;348527;28;877;-79
2022/04/24 00:48:17;;;;;;;348.80;163.43;;;;;;;16.71;60.10;99093.69;343952;28;1249;-79
2022/04/24 00:48:27;;;;;;;350.02;164.93;;;;;;;16.71;60.02;99093.69;346522;28;1226;-79
2022/04/24 00:48:38;;;;;;;350.83;167.60;;;;;;;16.71;59.83;99093.69;346527;28;1280;-79
2022/04/24 00:48:49;;;;;;;346.67;166.27;;;;;;;16.73;59.68;99096.22;345178;28;1365;-79
2022/04/24 00:48:59;;;;;;;343.63;163.93;;;;;;;16.73;60.12;99097.06;345344;28;1559;-79
2022/04/24 00:49:10;;;;;;;340.30;158.77;;;;;;;16.73;59.68;99097.06;342681;28;1184;-79
2022/04/24 00:49:21;;;;;;;340.02;156.45;;;;;;;16.69;59.83;99090.31;345249;28;885;-79
2022/04/24 00:49:31;;;;;;;341.05;155.73;;;;;;;16.67;59.94;99081.66;343872;28;1309;-79
2022/04/24 00:49:42;;;;;;;346.63;159.10;;;;;;;16.72;59.82;99090.09;342210;28;1866;-79
2022/04/24 00:49:52;;;;;;;350.92;162.70;;;;;;;16.71;60.06;99093.69;345087;28;1247;-78
2022/04/24 00:50:04;;;;;;;351.87;163.70;;;;;;;16.73;60.00;99093.59;345166;28;1355;-78
2022/04/24 00:50:14;;;;;;;348.70;162.63;;;;;;;16.72;59.70;99095.38;344119;28;1281;-78
2022/04/24 00:50:24;;;;;;;346.47;160.13;;;;;;;16.72;59.70;99090.09;345285;28;1379;-79
2022/04/24 00:50:37;;;;;;;344.25;159.57;;;;;;;16.73;59.66;99097.06;342950;28;787;-79
2022/04/24 00:50:47;;;;;;;343.45;161.15;;;;;;;16.73;60.04;99097.06;342597;28;1474;-79